createdAt,value
2018-01-20T00:00:20.386Z,0
2018-01-20T00:01:30.448Z,0
2018-01-20T00:02:40.244Z,0
2018-01-20T00:03:50.281Z,0
2018-01-20T00:05:00.084Z,0
2018-01-20T00:06:10.161Z,0
2018-01-20T00:07:20.241Z,0
2018-01-20T00:08:30.325Z,0
2018-01-20T00:09:40.371Z,0
2018-01-20T00:10:50.460Z,0
2018-01-20T00:12:00.584Z,0
2018-01-20T00:13:10.623Z,0
2018-01-20T00:14:22.117Z,0
2018-01-20T00:15:32.180Z,0
2018-01-20T00:16:42.241Z,0
2018-01-20T00:17:53.534Z,0
2018-01-20T00:19:03.599Z,0
2018-01-20T00:20:13.659Z,0
2018-01-20T00:21:23.733Z,0
2018-01-20T00:22:33.270Z,0
2018-01-20T00:23:43.317Z,0
2018-01-20T00:24:53.367Z,0
2018-01-20T00:26:03.439Z,0
2018-01-20T00:27:15.466Z,0
2018-01-20T00:28:25.529Z,0
2018-01-20T00:29:35.610Z,0
2018-01-20T00:30:45.668Z,0
2018-01-20T00:31:55.791Z,0
2018-01-20T00:33:05.857Z,0
2018-01-20T00:34:15.659Z,0
2018-01-20T00:35:25.742Z,0
2018-01-20T00:36:35.817Z,0
2018-01-20T00:37:46.784Z,0
2018-01-20T00:38:56.607Z,0
2018-01-20T00:40:06.419Z,0
2018-01-20T00:41:16.490Z,0
2018-01-20T00:42:26.563Z,0
2018-01-20T00:43:36.614Z,0
2018-01-20T00:44:46.689Z,0
2018-01-20T00:45:57.411Z,0
2018-01-20T00:47:07.205Z,0
2018-01-20T00:48:16.999Z,0
2018-01-20T00:49:27.164Z,0
2018-01-20T00:50:37.247Z,0
2018-01-20T00:51:47.052Z,0
2018-01-20T00:52:56.836Z,0
2018-01-20T00:54:06.679Z,0
2018-01-20T00:55:17.035Z,0
2018-01-20T00:56:26.586Z,0
2018-01-20T00:57:36.660Z,0
2018-01-20T00:58:46.675Z,0
2018-01-20T00:59:56.486Z,0
2018-01-20T01:01:06.300Z,0
2018-01-20T01:02:16.376Z,0
2018-01-20T01:03:26.441Z,0
2018-01-20T01:04:36.504Z,0
2018-01-20T01:05:47.107Z,0
2018-01-20T01:06:57.131Z,0
2018-01-20T01:08:06.914Z,0
2018-01-20T01:09:16.711Z,0
2018-01-20T01:10:26.791Z,0
2018-01-20T01:11:36.843Z,0
2018-01-20T01:12:46.883Z,0
2018-01-20T01:13:56.923Z,0
2018-01-20T01:15:07.967Z,0
2018-01-20T01:16:18.707Z,0
2018-01-20T01:17:28.762Z,0
2018-01-20T01:18:39.091Z,0
2018-01-20T01:19:49.130Z,0
2018-01-20T01:20:58.933Z,0
2018-01-20T01:22:09.365Z,0
2018-01-20T01:23:19.435Z,0
2018-01-20T01:24:29.222Z,0
2018-01-20T01:25:39.267Z,0
2018-01-20T01:26:49.051Z,0
2018-01-20T01:27:58.829Z,0
2018-01-20T01:29:08.875Z,0
2018-01-20T01:30:18.702Z,0
2018-01-20T01:31:28.740Z,0
2018-01-20T01:32:38.795Z,0
2018-01-20T01:34:01.321Z,0
2018-01-20T01:35:11.154Z,0
2018-01-20T01:36:21.217Z,0
2018-01-20T01:37:31.283Z,0
2018-01-20T01:38:41.335Z,0
2018-01-20T01:39:51.395Z,0
2018-01-20T01:41:01.458Z,0
2018-01-20T01:42:11.499Z,0
2018-01-20T01:43:21.299Z,0
2018-01-20T01:44:31.368Z,0
2018-01-20T01:45:40.915Z,0
2018-01-20T01:46:50.957Z,0
2018-01-20T01:48:01.006Z,0
2018-01-20T01:49:10.790Z,0
2018-01-20T01:50:20.846Z,0
2018-01-20T01:51:30.908Z,0
2018-01-20T01:52:41.206Z,0
2018-01-20T01:53:51.741Z,0
2018-01-20T01:55:01.805Z,0
2018-01-20T01:56:11.625Z,0
2018-01-20T01:57:21.153Z,0
2018-01-20T01:58:31.064Z,0
2018-01-20T01:59:41.121Z,0
2018-01-20T02:00:51.172Z,0
2018-01-20T02:02:00.970Z,0
2018-01-20T02:03:10.753Z,0
2018-01-20T02:04:20.850Z,0
2018-01-20T02:05:30.958Z,0
2018-01-20T02:06:41.013Z,0
2018-01-20T02:07:51.052Z,0
2018-01-20T02:09:00.843Z,0
2018-01-20T02:10:10.963Z,0
2018-01-20T02:11:21.025Z,0
2018-01-20T02:12:31.067Z,0
2018-01-20T02:13:41.144Z,0
2018-01-20T02:14:51.194Z,0
2018-01-20T02:16:00.996Z,0
2018-01-20T02:17:11.035Z,0
2018-01-20T02:18:20.836Z,0
2018-01-20T02:19:30.897Z,0
2018-01-20T02:20:40.943Z,0
2018-01-20T02:21:51.039Z,0
2018-01-20T02:23:00.561Z,0
2018-01-20T02:24:10.346Z,0
2018-01-20T02:25:20.391Z,0
2018-01-20T02:26:30.489Z,0
2018-01-20T02:27:40.542Z,0
2018-01-20T02:28:50.586Z,0
2018-01-20T02:30:00.626Z,0
2018-01-20T02:31:10.153Z,0
2018-01-20T02:32:20.209Z,0
2018-01-20T02:33:30.413Z,0
2018-01-20T02:34:40.465Z,0
2018-01-20T02:35:50.524Z,0
2018-01-20T02:37:00.579Z,0
2018-01-20T02:38:10.622Z,0
2018-01-20T02:39:20.698Z,0
2018-01-20T02:40:30.493Z,0
2018-01-20T02:41:40.292Z,0
2018-01-20T02:42:50.073Z,0
2018-01-20T02:44:00.120Z,0
2018-01-20T02:45:10.165Z,0
2018-01-20T02:46:20.210Z,0
2018-01-20T02:47:30.258Z,0
2018-01-20T02:48:40.051Z,0
2018-01-20T02:49:50.102Z,0
2018-01-20T02:51:00.191Z,0
2018-01-20T02:52:10.265Z,0
2018-01-20T02:53:20.342Z,0
2018-01-20T02:54:30.401Z,0
2018-01-20T02:55:39.936Z,0
2018-01-20T02:56:49.998Z,0
2018-01-20T02:57:59.774Z,0
2018-01-20T02:59:09.810Z,0
2018-01-20T03:00:19.837Z,0
2018-01-20T03:01:29.874Z,0
2018-01-20T03:02:39.911Z,0
2018-01-20T03:34:19.126Z,0
2018-01-20T03:35:29.169Z,0
2018-01-20T03:36:38.958Z,0
2018-01-20T03:37:48.784Z,0
2018-01-20T03:38:58.826Z,0
2018-01-20T03:40:08.914Z,0
2018-01-20T03:41:18.943Z,0
2018-01-20T03:42:28.985Z,0
2018-01-20T03:43:38.754Z,0
2018-01-20T03:44:48.540Z,0
2018-01-20T03:45:58.372Z,0
2018-01-20T03:47:08.414Z,0
2018-01-20T03:48:18.460Z,0
2018-01-20T03:49:28.497Z,0
2018-01-20T03:50:38.304Z,0
2018-01-20T03:51:48.374Z,0
2018-01-20T03:52:58.153Z,0
2018-01-20T03:54:07.929Z,0
2018-01-20T03:55:17.703Z,0
2018-01-20T03:56:27.496Z,0
2018-01-20T03:57:37.593Z,0
2018-01-20T03:58:47.645Z,0
2018-01-20T03:59:57.712Z,0
2018-01-20T04:01:07.506Z,0
2018-01-20T04:02:17.603Z,0
2018-01-20T04:03:27.653Z,0
2018-01-20T04:04:37.713Z,0
2018-01-20T04:05:47.760Z,0
2018-01-20T04:06:57.822Z,0
2018-01-20T04:08:07.865Z,0
2018-01-20T04:09:17.965Z,0
2018-01-20T04:10:28.018Z,0
2018-01-20T04:11:37.809Z,0
2018-01-20T04:12:47.868Z,0
2018-01-20T04:13:57.655Z,0
2018-01-20T04:15:07.497Z,0
2018-01-20T04:16:17.567Z,0
2018-01-20T04:17:27.337Z,0
2018-01-20T04:18:37.375Z,0
2018-01-20T04:19:47.166Z,0
2018-01-20T04:20:56.948Z,0
2018-01-20T04:22:06.475Z,0
2018-01-20T04:23:16.263Z,0
2018-01-20T04:24:26.294Z,0
2018-01-20T04:25:36.343Z,0
2018-01-20T04:26:46.394Z,0
2018-01-20T04:27:56.438Z,0
2018-01-20T04:29:06.476Z,0
2018-01-20T04:30:15.998Z,0
2018-01-20T04:31:26.058Z,0
2018-01-20T04:32:36.113Z,0
2018-01-20T04:33:45.909Z,0
2018-01-20T04:34:55.421Z,0
2018-01-20T04:36:05.456Z,0
2018-01-20T04:37:14.985Z,0
2018-01-20T04:38:24.765Z,0
2018-01-20T04:39:34.799Z,0
2018-01-20T04:40:44.581Z,0
2018-01-20T04:41:54.691Z,0
2018-01-20T04:43:04.726Z,0
2018-01-20T04:44:14.839Z,0
2018-01-20T04:45:24.628Z,0
2018-01-20T04:46:34.666Z,0
2018-01-20T04:47:45.113Z,0
2018-01-20T04:48:55.160Z,0
2018-01-20T04:50:04.945Z,0
2018-01-20T04:51:14.996Z,0
2018-01-20T04:52:24.777Z,0
2018-01-20T04:53:34.556Z,0
2018-01-20T04:54:44.075Z,0
2018-01-20T04:55:54.129Z,0
2018-01-20T04:57:04.177Z,0
2018-01-20T04:58:13.962Z,0
2018-01-20T04:59:23.998Z,0
2018-01-20T05:00:34.035Z,0
2018-01-20T05:01:44.129Z,0
2018-01-20T05:02:54.196Z,0
2018-01-20T05:04:04.236Z,0
2018-01-20T05:05:14.298Z,0
2018-01-20T05:06:24.337Z,0
2018-01-20T05:07:34.419Z,0
2018-01-20T05:08:44.490Z,0
2018-01-20T05:09:54.527Z,0
2018-01-20T05:11:04.305Z,0
2018-01-20T05:12:13.826Z,0
2018-01-20T05:13:23.614Z,0
2018-01-20T05:14:33.661Z,0
2018-01-20T05:15:43.432Z,0
2018-01-20T05:16:53.204Z,0
2018-01-20T05:18:03.259Z,0
2018-01-20T05:19:13.310Z,0
2018-01-20T05:20:23.358Z,0
2018-01-20T05:21:33.197Z,0
2018-01-20T05:22:43.257Z,0
2018-01-20T05:23:53.292Z,0
2018-01-20T05:25:03.380Z,0
2018-01-20T05:26:13.434Z,0
2018-01-20T05:27:23.464Z,0
2018-01-20T05:28:33.512Z,0
2018-01-20T05:29:43.552Z,0
2018-01-20T05:30:53.336Z,0
2018-01-20T05:32:03.376Z,0
2018-01-20T05:33:13.183Z,0
2018-01-20T05:34:23.241Z,0
2018-01-20T05:35:33.295Z,0
2018-01-20T05:36:43.333Z,0
2018-01-20T05:37:54.013Z,0
2018-01-20T05:39:04.059Z,0
2018-01-20T05:40:14.111Z,0
2018-01-20T05:41:24.160Z,0
2018-01-20T05:42:34.312Z,0
2018-01-20T05:43:44.340Z,0
2018-01-20T05:44:54.115Z,0
2018-01-20T05:46:04.159Z,0
2018-01-20T05:47:14.204Z,0
2018-01-20T05:48:24.289Z,0
2018-01-20T05:49:34.339Z,0
2018-01-20T05:50:44.389Z,0
2018-01-20T05:51:54.430Z,0
2018-01-20T05:53:04.227Z,0
2018-01-20T05:54:13.744Z,0
2018-01-20T05:55:23.786Z,0
2018-01-20T05:56:33.824Z,0
2018-01-20T05:57:43.604Z,0
2018-01-20T05:58:53.396Z,0
2018-01-20T06:00:03.179Z,0
2018-01-20T06:01:12.448Z,0
2018-01-20T06:02:22.236Z,0
2018-01-20T06:03:32.296Z,0
2018-01-20T06:04:43.435Z,0
2018-01-20T06:05:53.496Z,0
2018-01-20T06:07:03.288Z,0
2018-01-20T06:08:13.320Z,0
2018-01-20T06:09:23.113Z,0
2018-01-20T06:10:33.160Z,0
2018-01-20T06:11:42.944Z,0
2018-01-20T06:12:52.732Z,0
2018-01-20T06:14:02.521Z,0
2018-01-20T06:15:12.553Z,0
2018-01-20T06:16:22.602Z,0
2018-01-20T06:17:32.655Z,0
2018-01-20T06:18:42.742Z,0
2018-01-20T06:19:52.784Z,0
2018-01-20T06:21:02.840Z,0
2018-01-20T06:22:12.154Z,0
2018-01-20T06:23:21.952Z,0
2018-01-20T06:24:32.004Z,0
2018-01-20T06:25:42.048Z,0
2018-01-20T06:26:51.858Z,0
2018-01-20T06:28:01.922Z,0
2018-01-20T06:29:11.966Z,0
2018-01-20T06:30:22.015Z,0
2018-01-20T06:31:31.810Z,0
2018-01-20T06:32:41.583Z,0
2018-01-20T06:33:51.700Z,0
2018-01-20T06:35:01.797Z,0
2018-01-20T06:36:11.588Z,0
2018-01-20T06:37:21.636Z,0
2018-01-20T06:38:31.697Z,0
2018-01-20T06:39:41.745Z,0
2018-01-20T06:40:51.780Z,0
2018-01-20T06:42:01.303Z,0
2018-01-20T06:43:11.370Z,5
2018-01-20T06:44:21.424Z,5
2018-01-20T06:45:31.470Z,5
2018-01-20T06:46:41.055Z,5
2018-01-20T06:47:51.095Z,5
2018-01-20T06:49:01.148Z,5
2018-01-20T06:50:10.934Z,10
2018-01-20T06:51:20.971Z,10
2018-01-20T06:52:30.817Z,15
2018-01-20T06:53:40.871Z,15
2018-01-20T06:54:50.917Z,15
2018-01-20T06:56:00.962Z,20
2018-01-20T06:57:10.759Z,20
2018-01-20T06:58:20.601Z,20
2018-01-20T06:59:30.390Z,20
2018-01-20T07:00:40.171Z,15
2018-01-20T07:01:49.952Z,15
2018-01-20T07:03:00.009Z,15
2018-01-20T07:04:10.130Z,15
2018-01-20T07:05:20.172Z,20
2018-01-20T07:06:30.217Z,20
2018-01-20T07:07:39.996Z,25
2018-01-20T07:08:50.099Z,25
2018-01-20T07:10:00.158Z,30
2018-01-20T07:11:10.281Z,30
2018-01-20T07:12:20.346Z,30
2018-01-20T07:13:30.399Z,35
2018-01-20T07:14:40.451Z,35
2018-01-20T07:15:50.564Z,35
2018-01-20T07:17:00.626Z,35
2018-01-20T07:18:10.691Z,35
2018-01-20T07:19:20.487Z,40
2018-01-20T07:20:30.548Z,40
2018-01-20T07:21:40.326Z,50
2018-01-20T07:22:50.109Z,55
2018-01-20T07:24:00.157Z,55
2018-01-20T07:25:09.955Z,50
2018-01-20T07:26:20.112Z,55
2018-01-20T07:27:30.159Z,70
2018-01-20T07:28:40.216Z,70
2018-01-20T07:29:50.344Z,75
2018-01-20T07:30:59.868Z,75
2018-01-20T07:32:09.923Z,75
2018-01-20T07:33:19.764Z,70
2018-01-20T07:34:29.805Z,70
2018-01-20T07:35:39.853Z,70
2018-01-20T07:36:49.672Z,85
2018-01-20T07:37:59.755Z,85
2018-01-20T07:39:09.852Z,85
2018-01-20T07:40:19.899Z,90
2018-01-20T07:41:29.426Z,95
2018-01-20T07:42:39.228Z,90
2018-01-20T07:43:49.015Z,85
2018-01-20T07:44:59.120Z,90
2018-01-20T07:46:09.182Z,90
2018-01-20T07:47:19.245Z,90
2018-01-20T07:48:29.085Z,90
2018-01-20T07:49:39.133Z,90
2018-01-20T07:50:49.230Z,90
2018-01-20T07:51:59.033Z,70
2018-01-20T07:53:09.133Z,70
2018-01-20T07:54:19.188Z,75
2018-01-20T07:55:28.982Z,90
2018-01-20T07:56:39.041Z,80
2018-01-20T07:57:48.819Z,105
2018-01-20T07:58:58.355Z,110
2018-01-20T08:00:09.937Z,110
2018-01-20T08:01:19.771Z,105
2018-01-20T08:02:29.824Z,105
2018-01-20T08:03:39.605Z,75
2018-01-20T08:04:49.650Z,80
2018-01-20T08:05:59.703Z,90
2018-01-20T08:07:09.512Z,100
2018-01-20T08:08:19.573Z,105
2018-01-20T08:09:29.108Z,105
2018-01-20T08:10:39.180Z,105
2018-01-20T08:11:48.963Z,110
2018-01-20T08:12:59.014Z,110
2018-01-20T08:14:08.630Z,110
2018-01-20T08:15:18.413Z,110
2018-01-20T08:16:28.523Z,110
2018-01-20T08:17:38.590Z,115
2018-01-20T08:18:48.363Z,115
2018-01-20T08:19:58.414Z,115
2018-01-20T08:21:08.469Z,120
2018-01-20T08:22:18.542Z,120
2018-01-20T08:23:28.594Z,125
2018-01-20T08:24:38.668Z,125
2018-01-20T08:25:48.825Z,125
2018-01-20T08:26:58.916Z,125
2018-01-20T08:28:08.951Z,125
2018-01-20T08:29:18.998Z,125
2018-01-20T08:30:29.053Z,125
2018-01-20T08:31:38.888Z,125
2018-01-20T08:32:48.946Z,125
2018-01-20T08:33:58.730Z,130
2018-01-20T08:35:08.526Z,130
2018-01-20T08:36:18.386Z,130
2018-01-20T08:37:28.734Z,130
2018-01-20T08:38:38.850Z,135
2018-01-20T08:39:48.954Z,135
2018-01-20T08:40:58.741Z,135
2018-01-20T08:42:08.289Z,135
2018-01-20T08:43:18.349Z,135
2018-01-20T08:44:28.411Z,140
2018-01-20T08:45:38.456Z,140
2018-01-20T08:46:48.260Z,145
2018-01-20T08:47:58.321Z,145
2018-01-20T08:49:08.482Z,145
2018-01-20T08:50:18.291Z,150
2018-01-20T08:51:27.836Z,130
2018-01-20T08:52:37.631Z,120
2018-01-20T08:53:47.694Z,120
2018-01-20T08:54:58.058Z,115
2018-01-20T08:56:08.123Z,110
2018-01-20T08:57:18.809Z,110
2018-01-20T08:58:28.913Z,145
2018-01-20T08:59:38.990Z,145
2018-01-20T09:00:49.865Z,150
2018-01-20T09:01:59.938Z,150
2018-01-20T09:03:09.751Z,150
2018-01-20T09:04:19.280Z,145
2018-01-20T09:05:29.321Z,140
2018-01-20T09:06:39.116Z,135
2018-01-20T09:07:49.171Z,110
2018-01-20T09:08:59.224Z,100
2018-01-20T09:10:09.288Z,90
2018-01-20T09:11:20.095Z,100
2018-01-20T09:12:30.159Z,100
2018-01-20T09:13:40.204Z,105
2018-01-20T09:14:50.280Z,130
2018-01-20T09:16:00.067Z,130
2018-01-20T09:17:10.113Z,145
2018-01-20T09:18:20.216Z,150
2018-01-20T09:19:29.994Z,145
2018-01-20T09:20:40.058Z,160
2018-01-20T09:21:50.106Z,165
2018-01-20T09:23:00.151Z,165
2018-01-20T09:24:10.098Z,170
2018-01-20T09:25:20.157Z,170
2018-01-20T09:26:29.959Z,175
2018-01-20T09:27:39.231Z,180
2018-01-20T09:28:49.024Z,185
2018-01-20T09:29:59.186Z,185
2018-01-20T09:31:10.607Z,185
2018-01-20T09:32:20.404Z,190
2018-01-20T09:33:30.434Z,195
2018-01-20T09:34:40.502Z,195
2018-01-20T09:35:50.544Z,200
2018-01-20T09:37:00.600Z,200
2018-01-20T09:38:10.653Z,200
2018-01-20T09:39:20.703Z,200
2018-01-20T09:40:30.760Z,200
2018-01-20T09:41:40.814Z,200
2018-01-20T09:42:50.938Z,200
2018-01-20T09:44:01.024Z,200
2018-01-20T09:45:11.069Z,200
2018-01-20T09:46:21.124Z,200
2018-01-20T09:47:31.211Z,200
2018-01-20T09:48:41.267Z,200
2018-01-20T09:49:51.319Z,200
2018-01-20T09:51:01.380Z,200
2018-01-20T09:52:11.168Z,190
2018-01-20T09:53:22.369Z,190
2018-01-20T09:54:32.431Z,190
2018-01-20T09:55:42.504Z,200
2018-01-20T09:56:52.585Z,200
2018-01-20T09:58:02.369Z,200
2018-01-20T09:59:12.436Z,200
2018-01-20T10:00:23.166Z,200
2018-01-20T10:01:33.217Z,160
2018-01-20T10:02:43.013Z,205
2018-01-20T10:03:53.071Z,195
2018-01-20T10:05:03.217Z,190
2018-01-20T10:06:13.030Z,200
2018-01-20T10:07:23.112Z,210
2018-01-20T10:08:33.164Z,200
2018-01-20T10:09:43.258Z,210
2018-01-20T10:10:53.091Z,210
2018-01-20T10:12:02.880Z,215
2018-01-20T10:13:12.939Z,225
2018-01-20T10:14:23.085Z,225
2018-01-20T10:15:32.658Z,215
2018-01-20T10:16:42.765Z,240
2018-01-20T10:17:52.311Z,235
2018-01-20T10:19:02.364Z,235
2018-01-20T10:20:12.439Z,235
2018-01-20T10:21:21.972Z,230
2018-01-20T10:22:31.569Z,230
2018-01-20T10:23:41.613Z,225
2018-01-20T10:24:51.412Z,220
2018-01-20T10:26:01.550Z,220
2018-01-20T10:27:11.624Z,215
2018-01-20T10:28:21.696Z,215
2018-01-20T10:29:31.495Z,220
2018-01-20T10:30:41.562Z,220
2018-01-20T10:31:51.611Z,215
2018-01-20T10:33:01.665Z,210
2018-01-20T10:34:11.746Z,210
2018-01-20T10:35:21.533Z,210
2018-01-20T10:36:31.580Z,210
2018-01-20T10:37:41.357Z,210
2018-01-20T10:38:50.898Z,215
2018-01-20T10:40:01.027Z,220
2018-01-20T10:41:11.114Z,220
2018-01-20T10:42:21.182Z,225
2018-01-20T10:43:31.233Z,130
2018-01-20T10:44:41.351Z,135
2018-01-20T10:45:51.493Z,125
2018-01-20T10:47:01.062Z,125
2018-01-20T10:48:11.164Z,125
2018-01-20T10:49:21.244Z,130
2018-01-20T10:50:31.343Z,135
2018-01-20T10:51:41.205Z,135
2018-01-20T10:52:51.350Z,130
2018-01-20T10:54:01.407Z,130
2018-01-20T10:55:11.495Z,140
2018-01-20T10:56:21.286Z,165
2018-01-20T10:57:31.426Z,150
2018-01-20T10:58:41.234Z,155
2018-01-20T10:59:51.290Z,155
2018-01-20T11:01:01.355Z,160
2018-01-20T11:02:11.420Z,165
2018-01-20T11:03:21.492Z,160
2018-01-20T11:04:31.553Z,155
2018-01-20T11:05:41.614Z,150
2018-01-20T11:06:51.424Z,135
2018-01-20T11:08:01.489Z,125
2018-01-20T11:09:11.326Z,120
2018-01-20T11:10:21.406Z,120
2018-01-20T11:11:31.474Z,120
2018-01-20T11:12:41.009Z,120
2018-01-20T11:13:51.090Z,120
2018-01-20T11:15:01.222Z,110
2018-01-20T11:16:11.312Z,95
2018-01-20T11:17:21.355Z,90
2018-01-20T11:18:31.414Z,90
2018-01-20T11:19:41.550Z,90
2018-01-20T11:20:51.621Z,95
2018-01-20T11:22:01.688Z,100
2018-01-20T11:23:11.534Z,100
2018-01-20T11:24:21.603Z,90
2018-01-20T11:25:32.865Z,90
2018-01-20T11:26:42.933Z,85
2018-01-20T11:27:52.463Z,80
2018-01-20T11:29:02.527Z,80
2018-01-20T11:30:12.607Z,80
2018-01-20T11:31:22.672Z,85
2018-01-20T11:32:32.799Z,90
2018-01-20T11:33:42.866Z,90
2018-01-20T11:34:52.924Z,95
2018-01-20T11:36:02.990Z,105
2018-01-20T11:37:13.761Z,115
2018-01-20T11:38:23.598Z,120
2018-01-20T11:39:33.430Z,125
2018-01-20T11:40:43.233Z,130
2018-01-20T11:41:53.297Z,130
2018-01-20T11:43:03.089Z,130
2018-01-20T11:44:13.194Z,120
2018-01-20T11:45:23.002Z,105
2018-01-20T11:46:33.092Z,95
2018-01-20T11:47:43.143Z,85
2018-01-20T11:48:53.204Z,85
2018-01-20T11:50:03.314Z,90
2018-01-20T11:51:13.376Z,100
2018-01-20T11:52:23.214Z,115
2018-01-20T11:53:33.027Z,120
2018-01-20T11:54:42.845Z,125
2018-01-20T11:55:52.754Z,125
2018-01-20T11:57:02.597Z,120
2018-01-20T11:58:12.396Z,115
2018-01-20T11:59:22.470Z,110
2018-01-20T12:00:32.539Z,100
2018-01-20T12:01:42.596Z,95
2018-01-20T12:02:52.677Z,95
2018-01-20T12:04:02.787Z,95
2018-01-20T12:05:12.857Z,100
2018-01-20T12:06:24.024Z,100
2018-01-20T12:07:34.140Z,100
2018-01-20T12:08:44.209Z,100
2018-01-20T12:09:54.623Z,90
2018-01-20T12:11:05.632Z,85
2018-01-20T12:12:15.746Z,85
2018-01-20T12:13:25.902Z,85
2018-01-20T12:14:35.717Z,85
2018-01-20T12:15:45.774Z,85
2018-01-20T12:16:55.597Z,85
2018-01-20T12:18:05.716Z,75
2018-01-20T12:19:15.856Z,70
2018-01-20T12:20:25.941Z,70
2018-01-20T12:21:35.466Z,70
2018-01-20T12:22:45.593Z,65
2018-01-20T12:23:55.241Z,65
2018-01-20T12:25:05.126Z,65
2018-01-20T12:26:15.223Z,65
2018-01-20T12:27:25.569Z,70
2018-01-20T12:28:35.737Z,70
2018-01-20T12:29:45.803Z,70
2018-01-20T12:30:55.973Z,70
2018-01-20T12:32:05.844Z,70
2018-01-20T12:33:15.693Z,65
2018-01-20T12:34:25.876Z,60
2018-01-20T12:35:36.049Z,60
2018-01-20T12:36:46.158Z,55
2018-01-20T12:37:56.234Z,55
2018-01-20T12:39:06.364Z,55
2018-01-20T12:40:16.462Z,55
2018-01-20T12:41:26.549Z,50
2018-01-20T12:42:36.625Z,50
2018-01-20T12:43:46.743Z,45
2018-01-20T12:44:56.825Z,45
2018-01-20T12:46:06.873Z,45
2018-01-20T12:47:16.664Z,45
2018-01-20T12:48:26.801Z,45
2018-01-20T12:49:36.856Z,40
2018-01-20T12:50:46.718Z,45
2018-01-20T12:51:56.801Z,45
2018-01-20T12:53:06.605Z,45
2018-01-20T12:54:17.301Z,45
2018-01-20T12:55:27.382Z,45
2018-01-20T12:56:37.494Z,45
2018-01-20T12:57:47.560Z,45
2018-01-20T12:58:57.623Z,40
2018-01-20T13:00:07.683Z,35
2018-01-20T13:01:17.744Z,35
2018-01-20T13:02:27.808Z,35
2018-01-20T13:03:37.871Z,30
2018-01-20T13:04:48.537Z,30
2018-01-20T13:05:58.612Z,30
2018-01-20T13:07:08.676Z,35
2018-01-20T13:08:18.930Z,35
2018-01-20T13:09:29.000Z,30
2018-01-20T13:10:39.187Z,25
2018-01-20T13:13:13.953Z,15
2018-01-20T13:14:24.014Z,10
2018-01-20T13:15:34.085Z,10
2018-01-20T13:16:44.155Z,10
2018-01-20T13:17:54.266Z,10
2018-01-20T13:19:04.336Z,10
2018-01-20T13:20:14.147Z,15
2018-01-20T13:21:23.930Z,25
2018-01-20T13:22:33.982Z,30
2018-01-20T13:23:44.722Z,35
2018-01-20T13:24:54.774Z,45
2018-01-20T13:26:04.627Z,45
2018-01-20T13:27:14.672Z,45
2018-01-20T13:28:24.480Z,45
2018-01-20T13:29:35.500Z,40
2018-01-20T13:30:45.563Z,35
2018-01-20T13:31:55.635Z,30
2018-01-20T13:33:06.466Z,30
2018-01-20T13:34:16.593Z,25
2018-01-20T13:35:26.662Z,25
2018-01-20T13:36:36.736Z,25
2018-01-20T13:37:46.834Z,25
2018-01-20T13:38:56.654Z,30
2018-01-20T13:40:06.715Z,30
2018-01-20T13:41:16.787Z,30
2018-01-20T13:42:26.079Z,30
2018-01-20T13:43:36.133Z,35
2018-01-20T13:44:47.448Z,35
2018-01-20T13:45:58.605Z,40
2018-01-20T13:47:08.661Z,40
2018-01-20T13:48:18.470Z,45
2018-01-20T13:49:28.525Z,45
2018-01-20T13:50:38.634Z,40
2018-01-20T13:51:48.467Z,40
2018-01-20T13:52:58.644Z,40
2018-01-20T13:54:08.690Z,45
2018-01-20T13:55:18.247Z,45
2018-01-20T13:56:28.050Z,45
2018-01-20T13:57:38.102Z,45
2018-01-20T13:58:48.213Z,45
2018-01-20T13:59:58.265Z,45
2018-01-20T14:01:08.336Z,45
2018-01-20T14:02:18.129Z,45
2018-01-20T14:03:28.205Z,45
2018-01-20T14:04:38.001Z,45
2018-01-20T14:05:48.059Z,45
2018-01-20T14:06:57.830Z,45
2018-01-20T14:08:07.616Z,40
2018-01-20T14:09:17.676Z,40
2018-01-20T14:10:27.783Z,40
2018-01-20T14:11:37.875Z,45
2018-01-20T14:12:47.951Z,55
2018-01-20T14:13:58.015Z,65
2018-01-20T14:15:08.093Z,65
2018-01-20T14:16:18.158Z,65
2018-01-20T14:17:28.273Z,75
2018-01-20T14:18:38.320Z,75
2018-01-20T14:19:48.398Z,90
2018-01-20T14:20:58.458Z,95
2018-01-20T14:22:08.682Z,95
2018-01-20T14:23:18.737Z,85
2018-01-20T14:24:28.270Z,80
2018-01-20T14:25:38.318Z,80
2018-01-20T14:26:48.404Z,80
2018-01-20T14:27:58.535Z,80
2018-01-20T14:29:08.631Z,70
2018-01-20T14:30:18.699Z,70
2018-01-20T14:31:28.778Z,60
2018-01-20T14:32:38.873Z,60
2018-01-20T14:33:48.992Z,55
2018-01-20T14:34:59.495Z,55
2018-01-20T14:36:09.582Z,55
2018-01-20T14:37:19.652Z,50
2018-01-20T14:38:29.709Z,50
2018-01-20T14:39:39.854Z,50
2018-01-20T14:40:49.663Z,50
2018-01-20T14:41:59.732Z,55
2018-01-20T14:43:09.532Z,55
2018-01-20T14:44:19.597Z,55
2018-01-20T14:45:29.700Z,60
2018-01-20T14:46:39.772Z,55
2018-01-20T14:47:49.831Z,50
2018-01-20T14:48:59.901Z,50
2018-01-20T14:50:09.964Z,45
2018-01-20T14:51:20.028Z,45
2018-01-20T14:52:30.493Z,40
2018-01-20T14:53:40.987Z,35
2018-01-20T14:54:51.631Z,35
2018-01-20T14:56:01.685Z,35
2018-01-20T14:57:11.545Z,35
2018-01-20T14:58:20.830Z,35
2018-01-20T14:59:30.929Z,30
2018-01-20T15:00:42.530Z,30
2018-01-20T15:01:52.582Z,25
2018-01-20T15:03:02.710Z,25
2018-01-20T15:04:12.752Z,25
2018-01-20T15:05:22.805Z,25
2018-01-20T15:06:32.892Z,25
2018-01-20T15:07:42.966Z,20
2018-01-20T15:08:53.047Z,20
2018-01-20T15:10:03.101Z,20
2018-01-20T15:11:13.191Z,20
2018-01-20T15:12:22.998Z,20
2018-01-20T15:13:33.088Z,20
2018-01-20T15:14:43.160Z,15
2018-01-20T15:15:54.185Z,15
2018-01-20T15:17:04.241Z,15
2018-01-20T15:18:14.288Z,15
2018-01-20T15:19:24.377Z,15
2018-01-20T15:20:34.225Z,10
2018-01-20T15:21:44.038Z,10
2018-01-20T15:22:53.822Z,10
2018-01-20T15:24:03.623Z,10
2018-01-20T15:25:13.709Z,5
2018-01-20T15:26:23.765Z,5
2018-01-20T15:27:33.556Z,5
2018-01-20T15:28:43.610Z,5
2018-01-20T15:29:53.708Z,5
2018-01-20T15:31:03.504Z,5
2018-01-20T15:32:13.611Z,0
2018-01-20T15:33:23.408Z,0
2018-01-20T15:34:33.219Z,0
2018-01-20T15:35:43.951Z,0
2018-01-20T15:36:54.013Z,0
2018-01-20T15:38:03.914Z,0
2018-01-20T15:39:14.076Z,0
2018-01-20T15:40:23.889Z,0
2018-01-20T15:41:34.698Z,0
2018-01-20T15:42:44.491Z,0
2018-01-20T15:43:54.612Z,0
2018-01-20T15:45:04.679Z,0
2018-01-20T15:46:14.753Z,0
2018-01-20T15:47:24.567Z,0
2018-01-20T15:48:34.632Z,0
2018-01-20T15:49:44.692Z,0
2018-01-20T15:50:56.110Z,0
2018-01-20T15:52:06.191Z,0
2018-01-20T15:53:15.989Z,0
2018-01-20T15:54:26.049Z,0
2018-01-20T15:55:36.193Z,0
2018-01-20T15:56:46.253Z,0
2018-01-20T15:57:56.300Z,0
2018-01-20T15:59:06.406Z,0
2018-01-20T16:00:16.452Z,0
2018-01-20T16:01:26.565Z,0
2018-01-20T16:02:36.623Z,0
2018-01-20T16:03:46.685Z,0
2018-01-20T16:04:56.741Z,0
2018-01-20T16:06:06.832Z,0
2018-01-20T16:07:16.956Z,0
2018-01-20T16:08:27.027Z,0
2018-01-20T16:09:37.086Z,0
2018-01-20T16:10:47.137Z,0
2018-01-20T16:11:57.204Z,0
2018-01-20T16:13:07.382Z,0
2018-01-20T16:14:17.435Z,0
2018-01-20T16:15:26.985Z,0
2018-01-20T16:16:37.058Z,0
2018-01-20T16:17:47.130Z,0
2018-01-20T16:18:56.668Z,0
2018-01-20T16:20:06.717Z,0
2018-01-20T16:21:16.824Z,0
2018-01-20T16:22:26.861Z,0
2018-01-20T16:23:36.673Z,0
2018-01-20T16:24:46.739Z,0
2018-01-20T16:25:56.625Z,0
2018-01-20T16:27:06.703Z,0
2018-01-20T16:28:16.792Z,0
2018-01-20T16:29:26.386Z,0
2018-01-20T16:30:36.493Z,0
2018-01-20T16:31:46.295Z,0
2018-01-20T16:32:56.118Z,0
2018-01-20T16:34:06.198Z,0
2018-01-20T16:35:16.276Z,0
2018-01-20T16:36:26.368Z,0
2018-01-20T16:37:36.432Z,0
2018-01-20T16:38:46.245Z,0
2018-01-20T16:39:56.319Z,0
2018-01-20T16:41:06.378Z,0
2018-01-20T16:42:16.497Z,0
2018-01-20T16:43:26.583Z,0
2018-01-20T16:44:36.654Z,0
2018-01-20T16:45:46.468Z,0
2018-01-20T16:46:56.536Z,0
2018-01-20T16:48:06.395Z,0
2018-01-20T16:49:16.537Z,0
2018-01-20T16:50:26.088Z,0
2018-01-20T16:51:36.143Z,0
2018-01-20T16:52:45.942Z,0
2018-01-20T16:53:55.475Z,0
2018-01-20T16:55:05.276Z,0
2018-01-20T16:56:15.323Z,0
2018-01-20T16:57:25.428Z,0
2018-01-20T16:58:35.482Z,0
2018-01-20T16:59:45.029Z,0
2018-01-20T17:00:55.094Z,0
2018-01-20T17:02:05.136Z,0
2018-01-20T17:03:15.244Z,0
2018-01-20T17:04:25.053Z,0
2018-01-20T17:05:35.120Z,0
2018-01-20T17:06:44.922Z,0
2018-01-20T17:07:54.991Z,0
2018-01-20T17:09:05.123Z,0
2018-01-20T17:10:15.196Z,0
2018-01-20T17:11:25.255Z,0
2018-01-20T17:12:35.099Z,0
2018-01-20T17:13:45.244Z,0
2018-01-20T17:14:55.391Z,0
2018-01-20T17:16:05.501Z,0
2018-01-20T17:17:15.590Z,0
2018-01-20T17:18:25.376Z,0
2018-01-20T17:19:35.451Z,0